Time;durP1;ratioP1;P1;durP2;ratioP2;P2;SDS_P1;SDS_P2;PMS_P1;PMS_P2;Temp;Humidity;BMP_temperature;BMP_pressure;BME280_temperature;BME280_humidity;BME280_pressure;Samples;Min_cycle;Max_cycle;Signal;HPM_P1;HPM_P2
2020/12/06 00:00:58;;;;;;;18.10;16.13;;;;;;;;;;5054567;28;20456;-72
2020/12/06 00:03:42;;;;;;;16.77;14.97;;;;;;;;;;5053358;28;20463;-73
2020/12/06 00:06:27;;;;;;;17.17;15.13;;;;;;;;;;5053804;28;20530;-72
2020/12/06 00:09:12;;;;;;;22.13;20.08;;;;;;;;;;5049063;28;20433;-72
2020/12/06 00:11:58;;;;;;;19.77;17.03;;;;;;;;;;5053022;28;20281;-72
2020/12/06 00:14:42;;;;;;;19.33;16.27;;;;;;;;;;5052771;28;20564;-71
2020/12/06 00:17:27;;;;;;;18.70;15.97;;;;;;;;;;5053380;28;20435;-73
2020/12/06 00:20:11;;;;;;;17.33;15.57;;;;;;;;;;5052875;28;20559;-72
2020/12/06 00:22:56;;;;;;;18.00;16.17;;;;;;;;;;5052922;28;20424;-71
2020/12/06 00:25:40;;;;;;;17.70;16.00;;;;;;;;;;5033813;28;20413;-72
2020/12/06 00:28:26;;;;;;;18.30;16.43;;;;;;;;;;5038512;28;20540;-72
2020/12/06 00:31:10;;;;;;;18.40;16.57;;;;;;;;;;5053811;28;20947;-72
2020/12/06 00:33:55;;;;;;;18.40;16.07;;;;;;;;;;5050694;28;21002;-72
2020/12/06 00:36:39;;;;;;;18.50;16.60;;;;;;;;;;5033278;28;20406;-72
2020/12/06 00:39:24;;;;;;;19.47;16.83;;;;;;;;;;5045277;28;20475;-72
2020/12/06 00:42:09;;;;;;;19.70;16.33;;;;;;;;;;5052880;28;20580;-72
2020/12/06 00:44:54;;;;;;;17.70;15.90;;;;;;;;;;5052526;28;20467;-72
2020/12/06 00:47:38;;;;;;;18.33;15.97;;;;;;;;;;5053041;28;20420;-72
2020/12/06 00:50:23;;;;;;;19.07;17.07;;;;;;;;;;5052541;28;20459;-72
2020/12/06 00:53:08;;;;;;;20.00;17.83;;;;;;;;;;5052429;28;20477;-72
2020/12/06 00:55:52;;;;;;;19.27;17.37;;;;;;;;;;5053327;28;20423;-72
2020/12/06 00:58:37;;;;;;;19.53;17.43;;;;;;;;;;5050069;28;20996;-72
2020/12/06 01:01:22;;;;;;;18.63;16.77;;;;;;;;;;5053320;28;20861;-72
2020/12/06 01:04:07;;;;;;;18.73;16.83;;;;;;;;;;5052196;28;20591;-72
2020/12/06 01:06:52;;;;;;;19.20;17.20;;;;;;;;;;5052580;28;20435;-72
2020/12/06 01:09:36;;;;;;;19.00;16.77;;;;;;;;;;5051996;28;20473;-72
2020/12/06 01:12:23;;;;;;;18.67;16.07;;;;;;;;;;5053124;28;20779;-72
2020/12/06 01:15:09;;;;;;;18.67;16.70;;;;;;;;;;5052536;28;20475;-72
2020/12/06 01:17:54;;;;;;;17.60;15.80;;;;;;;;;;5050164;28;20875;-72
2020/12/06 01:20:38;;;;;;;18.77;16.87;;;;;;;;;;5033046;28;20418;-73
2020/12/06 01:23:23;;;;;;;18.10;16.20;;;;;;;;;;5041963;28;20554;-72
2020/12/06 01:26:09;;;;;;;19.43;17.47;;;;;;;;;;5052308;28;20776;-72
2020/12/06 01:28:54;;;;;;;19.20;17.20;;;;;;;;;;5051703;28;20475;-72
2020/12/06 01:31:38;;;;;;;20.17;17.47;;;;;;;;;;5052459;28;20412;-72
2020/12/06 01:34:23;;;;;;;18.70;16.80;;;;;;;;;;5049172;28;20586;-72
2020/12/06 01:37:08;;;;;;;19.57;17.63;;;;;;;;;;5052044;28;20429;-72
2020/12/06 01:39:52;;;;;;;19.63;17.37;;;;;;;;;;5051599;28;20492;-72
2020/12/06 01:42:37;;;;;;;18.63;16.73;;;;;;;;;;5051020;28;20465;-71
2020/12/06 01:45:21;;;;;;;18.63;16.73;;;;;;;;;;5032509;28;20496;-73
2020/12/06 01:48:07;;;;;;;18.90;16.90;;;;;;;;;;5033971;28;20478;-72
2020/12/06 01:50:52;;;;;;;18.80;16.87;;;;;;;;;;5031472;28;20481;-71
2020/12/06 01:53:36;;;;;;;19.33;17.43;;;;;;;;;;5043149;28;20558;-72
2020/12/06 01:56:21;;;;;;;20.60;16.80;;;;;;;;;;5051895;28;20412;-72
2020/12/06 01:59:06;;;;;;;18.37;16.57;;;;;;;;;;5050245;28;21213;-72
2020/12/06 02:01:55;;;;;;;18.20;16.20;;;;;;;;;;5052190;28;20954;-72
2020/12/06 02:04:40;;;;;;;18.47;16.67;;;;;;;;;;5046826;28;20519;-72
2020/12/06 02:07:27;;;;;;;19.73;17.60;;;;;;;;;;5051090;28;20822;-73
2020/12/06 02:10:11;;;;;;;19.33;17.43;;;;;;;;;;5040085;28;20967;-73
2020/12/06 02:12:57;;;;;;;18.73;16.50;;;;;;;;;;5050014;28;20498;-72
2020/12/06 02:15:41;;;;;;;22.02;20.02;;;;;;;;;;5031019;28;20786;-72
2020/12/06 02:18:25;;;;;;;20.10;18.10;;;;;;;;;;5034090;28;20752;-72
2020/12/06 02:21:11;;;;;;;19.80;17.80;;;;;;;;;;5051721;28;20421;-72
2020/12/06 02:23:55;;;;;;;20.07;17.97;;;;;;;;;;5048848;28;20449;-72
2020/12/06 02:26:41;;;;;;;18.43;16.63;;;;;;;;;;5050917;28;20418;-72
2020/12/06 02:29:25;;;;;;;18.67;16.67;;;;;;;;;;5049709;28;20480;-72
2020/12/06 02:32:10;;;;;;;19.30;17.40;;;;;;;;;;5051621;28;20408;-72
2020/12/06 02:34:54;;;;;;;18.40;16.37;;;;;;;;;;5049207;28;21046;-72
2020/12/06 02:37:40;;;;;;;19.23;17.33;;;;;;;;;;5050811;28;20418;-73
2020/12/06 02:40:24;;;;;;;19.70;17.53;;;;;;;;;;5049849;28;20452;-72
2020/12/06 02:43:09;;;;;;;20.30;18.20;;;;;;;;;;5050325;28;20425;-70
2020/12/06 02:45:53;;;;;;;19.27;17.30;;;;;;;;;;5031048;28;20422;-73
2020/12/06 02:48:38;;;;;;;19.47;17.43;;;;;;;;;;5033831;28;20691;-71
2020/12/06 02:51:23;;;;;;;20.27;18.17;;;;;;;;;;5031320;28;21052;-72
2020/12/06 02:54:08;;;;;;;20.03;17.97;;;;;;;;;;5034834;28;20483;-72
2020/12/06 02:56:52;;;;;;;19.60;17.63;;;;;;;;;;5050732;28;20809;-72
2020/12/06 02:59:37;;;;;;;18.93;17.03;;;;;;;;;;5048313;28;20547;-72
2020/12/06 03:02:21;;;;;;;19.03;17.07;;;;;;;;;;5050823;28;20433;-71
2020/12/06 03:05:06;;;;;;;19.50;17.37;;;;;;;;;;5048632;28;20452;-72
2020/12/06 03:07:51;;;;;;;19.03;17.03;;;;;;;;;;5050486;28;20435;-72
2020/12/06 03:10:36;;;;;;;19.27;17.30;;;;;;;;;;5049644;28;20457;-72
2020/12/06 03:13:21;;;;;;;19.10;16.70;;;;;;;;;;5050958;28;20463;-72
2020/12/06 03:16:05;;;;;;;18.80;17.00;;;;;;;;;;5047160;28;20522;-72
2020/12/06 03:18:50;;;;;;;19.03;17.13;;;;;;;;;;5050852;28;20611;-72
2020/12/06 03:21:34;;;;;;;23.13;21.00;;;;;;;;;;5047375;28;20537;-72
2020/12/06 03:24:19;;;;;;;19.57;17.70;;;;;;;;;;5050692;28;20854;-72
2020/12/06 03:27:04;;;;;;;19.60;17.60;;;;;;;;;;5047233;28;20999;-72
2020/12/06 03:29:49;;;;;;;18.80;16.90;;;;;;;;;;5050763;28;20844;-72
2020/12/06 03:32:33;;;;;;;19.10;17.10;;;;;;;;;;5048592;28;20212;-72
2020/12/06 03:35:18;;;;;;;18.43;16.53;;;;;;;;;;5049877;28;20566;-70
2020/12/06 03:38:03;;;;;;;19.63;16.90;;;;;;;;;;5030055;28;20232;-71
2020/12/06 03:40:47;;;;;;;19.60;16.60;;;;;;;;;;5042991;28;20460;-73
2020/12/06 03:43:33;;;;;;;17.57;15.87;;;;;;;;;;5049981;28;20448;-71
2020/12/06 03:46:17;;;;;;;18.30;16.40;;;;;;;;;;5049295;28;20604;-72
2020/12/06 03:49:02;;;;;;;18.67;16.67;;;;;;;;;;5050607;28;20441;-72
2020/12/06 03:51:46;;;;;;;18.27;16.27;;;;;;;;;;5040630;28;20919;-73
2020/12/06 03:54:31;;;;;;;17.80;16.00;;;;;;;;;;5030605;28;20870;-71
2020/12/06 03:57:16;;;;;;;19.50;15.63;;;;;;;;;;5043378;28;20599;-73
2020/12/06 04:00:01;;;;;;;18.20;16.40;;;;;;;;;;5050412;28;20416;-73
2020/12/06 04:02:45;;;;;;;18.07;16.20;;;;;;;;;;5047671;28;20465;-72
2020/12/06 04:05:30;;;;;;;17.97;16.20;;;;;;;;;;5050510;28;20552;-73
2020/12/06 04:08:14;;;;;;;18.40;16.50;;;;;;;;;;5047127;28;20479;-72
2020/12/06 04:10:59;;;;;;;20.23;17.47;;;;;;;;;;5049637;28;20444;-71
2020/12/06 04:13:44;;;;;;;20.20;17.17;;;;;;;;;;5049529;28;20457;-72
2020/12/06 04:16:29;;;;;;;18.77;16.53;;;;;;;;;;5050921;28;20852;-72
2020/12/06 04:19:13;;;;;;;19.43;17.30;;;;;;;;;;5054070;28;20431;-72
2020/12/06 04:21:58;;;;;;;21.60;17.57;;;;;;;;;;5051621;28;20464;-72
2020/12/06 04:24:43;;;;;;;18.70;16.70;;;;;;;;;;5053977;28;20471;-72
2020/12/06 04:27:27;;;;;;;19.73;17.73;;;;;;;;;;5052234;28;20444;-72
2020/12/06 04:30:12;;;;;;;19.00;17.10;;;;;;;;;;5053924;28;20437;-72
2020/12/06 04:32:57;;;;;;;19.53;17.63;;;;;;;;;;5051486;28;20489;-72
2020/12/06 04:35:42;;;;;;;18.93;17.03;;;;;;;;;;5053854;28;20421;-72
2020/12/06 04:38:26;;;;;;;18.23;16.33;;;;;;;;;;5050297;28;20574;-71
2020/12/06 04:41:11;;;;;;;18.33;16.57;;;;;;;;;;5053753;28;20424;-72
2020/12/06 04:43:55;;;;;;;18.20;16.40;;;;;;;;;;5052009;28;20668;-72
2020/12/06 04:46:40;;;;;;;18.33;16.43;;;;;;;;;;5051835;28;20499;-72
2020/12/06 04:49:43;;;;;;;17.43;15.63;;;;;;;;;;5033578;28;20434;-72
2020/12/06 04:52:28;;;;;;;17.90;15.80;;;;;;;;;;5036996;28;20475;-72
2020/12/06 04:55:13;;;;;;;18.23;16.37;;;;;;;;;;5053153;28;20846;-72
2020/12/06 04:57:58;;;;;;;18.20;16.20;;;;;;;;;;5051863;28;20844;-72
2020/12/06 05:00:44;;;;;;;17.63;15.93;;;;;;;;;;5053182;28;20478;-73
2020/12/06 05:03:30;;;;;;;18.27;16.43;;;;;;;;;;5052209;28;20567;-71
2020/12/06 05:06:18;;;;;;;19.50;17.40;;;;;;;;;;5052588;28;20412;-71
2020/12/06 05:09:04;;;;;;;19.07;16.80;;;;;;;;;;5051886;28;20566;-72
2020/12/06 05:11:48;;;;;;;21.13;18.20;;;;;;;;;;5052418;28;20431;-71
2020/12/06 05:14:33;;;;;;;19.33;17.40;;;;;;;;;;5032893;28;20602;-72
2020/12/06 05:17:17;;;;;;;18.77;16.83;;;;;;;;;;5039565;28;20795;-72
2020/12/06 05:20:09;;;;;;;19.27;17.37;;;;;;;;;;5053062;28;20886;-72
2020/12/06 05:22:54;;;;;;;18.43;16.73;;;;;;;;;;5050754;28;20538;-72
2020/12/06 05:25:39;;;;;;;20.27;18.20;;;;;;;;;;5051779;28;20827;-72
2020/12/06 05:28:24;;;;;;;20.90;18.90;;;;;;;;;;5051680;28;20476;-72
2020/12/06 05:31:08;;;;;;;20.27;18.17;;;;;;;;;;5046130;28;20457;-69
2020/12/06 05:33:53;;;;;;;21.70;19.60;;;;;;;;;;5049928;28;20476;-72
2020/12/06 05:36:41;;;;;;;21.40;19.30;;;;;;;;;;5045381;28;20905;-71
2020/12/06 05:39:27;;;;;;;21.30;19.20;;;;;;;;;;5033669;28;20466;-72
2020/12/06 05:42:11;;;;;;;21.43;19.27;;;;;;;;;;5040584;28;21048;-72
2020/12/06 05:44:56;;;;;;;20.80;18.70;;;;;;;;;;5052389;28;20410;-70
2020/12/06 05:47:41;;;;;;;21.37;19.23;;;;;;;;;;5048430;28;21251;-71
2020/12/06 05:50:25;;;;;;;21.40;19.23;;;;;;;;;;5048590;28;20465;-73
2020/12/06 05:53:11;;;;;;;21.20;19.00;;;;;;;;;;5040456;28;20431;-76
2020/12/06 05:56:04;;;;;;;22.30;20.07;;;;;;;;;;5043140;28;20426;-76
2020/12/06 05:58:49;;;;;;;22.00;19.90;;;;;;;;;;5050442;28;20439;-74
2020/12/06 06:01:34;;;;;;;22.20;19.00;;;;;;;;;;5031959;28;20549;-73
2020/12/06 06:04:20;;;;;;;22.67;20.27;;;;;;;;;;5032218;28;20410;-76
2020/12/06 06:07:05;;;;;;;21.27;19.00;;;;;;;;;;5031349;28;20431;-73
2020/12/06 06:09:50;;;;;;;23.13;20.47;;;;;;;;;;5032141;28;20457;-75
2020/12/06 06:12:39;;;;;;;22.70;20.40;;;;;;;;;;5046701;28;20418;-74
2020/12/06 06:15:25;;;;;;;21.90;19.50;;;;;;;;;;5051502;28;20577;-74
2020/12/06 06:18:09;;;;;;;21.87;19.57;;;;;;;;;;5051301;28;20445;-73
2020/12/06 06:20:54;;;;;;;22.07;19.77;;;;;;;;;;5052009;28;20938;-74
2020/12/06 06:23:39;;;;;;;23.27;20.23;;;;;;;;;;5051781;28;20405;-75
2020/12/06 06:26:26;;;;;;;22.50;20.10;;;;;;;;;;5050953;28;20931;-74
2020/12/06 06:29:11;;;;;;;23.13;20.77;;;;;;;;;;5051467;28;20806;-73
2020/12/06 06:31:56;;;;;;;28.95;26.25;;;;;;;;;;5050373;28;20405;-73
2020/12/06 06:34:42;;;;;;;25.20;22.50;;;;;;;;;;5051370;28;20231;-74
2020/12/06 06:37:28;;;;;;;26.77;21.90;;;;;;;;;;5050329;28;20415;-76
2020/12/06 06:40:12;;;;;;;25.77;21.83;;;;;;;;;;5047532;28;20499;-76
2020/12/06 06:42:57;;;;;;;25.10;21.83;;;;;;;;;;5046214;28;20447;-76
2020/12/06 06:45:44;;;;;;;23.87;20.97;;;;;;;;;;5031408;28;20479;-77
2020/12/06 06:48:29;;;;;;;22.43;19.97;;;;;;;;;;5048029;28;20449;-76
2020/12/06 06:51:20;;;;;;;23.20;20.10;;;;;;;;;;5051289;28;20419;-76
2020/12/06 06:54:05;;;;;;;25.97;20.37;;;;;;;;;;5040676;28;20488;-76
2020/12/06 06:56:50;;;;;;;24.27;21.70;;;;;;;;;;5039454;28;20522;-76
2020/12/06 06:59:38;;;;;;;23.83;20.57;;;;;;;;;;5051005;28;20416;-77
2020/12/06 07:02:32;;;;;;;25.60;21.43;;;;;;;;;;5041655;28;20459;-77
2020/12/06 07:05:20;;;;;;;27.40;24.80;;;;;;;;;;5045444;28;20753;-77
2020/12/06 07:08:09;;;;;;;26.70;23.03;;;;;;;;;;5046866;28;20582;-77
2020/12/06 07:10:54;;;;;;;25.87;23.07;;;;;;;;;;5040578;28;20456;-78
2020/12/06 07:13:40;;;;;;;25.67;22.87;;;;;;;;;;5030401;28;20467;-75
2020/12/06 07:16:25;;;;;;;26.07;23.30;;;;;;;;;;5034144;28;20444;-77
2020/12/06 07:19:10;;;;;;;23.73;21.23;;;;;;;;;;5030500;28;20439;-76
2020/12/06 07:21:55;;;;;;;24.07;21.67;;;;;;;;;;5030747;28;20537;-77
2020/12/06 07:24:39;;;;;;;25.23;22.53;;;;;;;;;;5034250;28;20810;-78
2020/12/06 07:27:24;;;;;;;26.23;23.43;;;;;;;;;;5049191;28;20440;-77
2020/12/06 07:30:10;;;;;;;24.40;21.90;;;;;;;;;;5039204;28;20428;-77
2020/12/06 07:32:54;;;;;;;24.67;21.90;;;;;;;;;;5050477;28;20788;-76
2020/12/06 07:35:39;;;;;;;25.37;22.77;;;;;;;;;;5037026;28;20484;-76
2020/12/06 07:38:24;;;;;;;27.13;24.23;;;;;;;;;;5030257;28;20433;-77
2020/12/06 07:41:08;;;;;;;27.03;23.77;;;;;;;;;;5040669;28;20436;-76
2020/12/06 07:43:53;;;;;;;28.63;25.57;;;;;;;;;;5050266;28;20531;-77
2020/12/06 07:46:38;;;;;;;29.33;25.10;;;;;;;;;;5049896;28;20536;-76
2020/12/06 07:49:23;;;;;;;30.57;25.53;;;;;;;;;;5048139;28;20671;-77
2020/12/06 07:52:11;;;;;;;28.40;25.00;;;;;;;;;;5047524;28;20640;-77
2020/12/06 07:54:57;;;;;;;27.00;23.27;;;;;;;;;;5051120;28;20605;-76
2020/12/06 07:57:48;;;;;;;29.60;24.93;;;;;;;;;;5046409;28;20805;-77
2020/12/06 08:00:37;;;;;;;33.23;26.90;;;;;;;;;;5052861;28;20806;-77
2020/12/06 08:03:22;;;;;;;34.80;30.30;;;;;;;;;;5051322;28;20468;-76
2020/12/06 08:06:06;;;;;;;38.10;34.30;;;;;;;;;;5053024;28;20416;-77
2020/12/06 08:08:54;;;;;;;31.90;27.93;;;;;;;;;;5043250;28;20825;-76
2020/12/06 08:11:41;;;;;;;31.53;28.13;;;;;;;;;;5033990;28;20463;-77
2020/12/06 08:14:25;;;;;;;30.00;26.20;;;;;;;;;;5043675;28;20475;-76
2020/12/06 08:17:10;;;;;;;30.40;27.20;;;;;;;;;;5042927;28;20513;-76
2020/12/06 08:19:55;;;;;;;28.77;25.67;;;;;;;;;;5045675;28;20454;-76
2020/12/06 08:22:48;;;;;;;28.80;25.10;;;;;;;;;;5048784;28;20427;-77
2020/12/06 08:25:34;;;;;;;28.50;25.03;;;;;;;;;;5034032;28;20957;-76
2020/12/06 08:28:19;;;;;;;29.67;26.10;;;;;;;;;;5035599;28;20469;-75
2020/12/06 08:31:18;;;;;;;30.97;27.63;;;;;;;;;;5046899;28;21040;-76
2020/12/06 08:34:13;;;;;;;32.77;28.30;;;;;;;;;;5051887;28;21087;-76
2020/12/06 08:37:12;;;;;;;29.73;26.73;;;;;;;;;;5044476;28;20931;-76
2020/12/06 08:40:00;;;;;;;28.50;25.47;;;;;;;;;;5033749;28;20497;-75
2020/12/06 08:42:55;;;;;;;37.05;33.38;;;;;;;;;;5045815;28;20428;-76
2020/12/06 08:45:40;;;;;;;29.77;26.57;;;;;;;;;;5043900;28;20778;-77
2020/12/06 08:48:28;;;;;;;28.03;24.93;;;;;;;;;;5053428;28;20573;-76
2020/12/06 08:51:29;;;;;;;27.93;24.53;;;;;;;;;;5044384;28;20223;-76
2020/12/06 08:54:13;;;;;;;28.87;25.70;;;;;;;;;;5047214;28;20630;-77
2020/12/06 08:57:05;;;;;;;28.53;25.07;;;;;;;;;;5050178;28;20448;-70
2020/12/06 08:59:51;;;;;;;27.33;23.83;;;;;;;;;;5052180;28;20423;-74
2020/12/06 09:02:35;;;;;;;28.60;24.30;;;;;;;;;;5052923;28;20499;-74
2020/12/06 09:05:20;;;;;;;28.93;24.50;;;;;;;;;;5052986;28;20207;-74
2020/12/06 09:08:04;;;;;;;29.47;24.57;;;;;;;;;;5049143;28;20458;-75
2020/12/06 09:10:49;;;;;;;31.03;27.07;;;;;;;;;;5052585;28;20498;-75
2020/12/06 09:13:34;;;;;;;34.73;30.67;;;;;;;;;;5052923;28;20773;-73
2020/12/06 09:16:19;;;;;;;34.87;29.80;;;;;;;;;;5052357;28;20267;-73
2020/12/06 09:19:03;;;;;;;30.97;26.67;;;;;;;;;;5052699;28;20552;-75
2020/12/06 09:21:48;;;;;;;29.53;26.43;;;;;;;;;;5052787;28;20425;-74
2020/12/06 09:24:33;;;;;;;29.07;26.07;;;;;;;;;;5050672;28;20442;-76
2020/12/06 09:27:17;;;;;;;29.13;26.00;;;;;;;;;;5043856;28;20679;-75
2020/12/06 09:30:02;;;;;;;28.37;24.50;;;;;;;;;;5050874;28;20448;-75
2020/12/06 09:32:47;;;;;;;30.30;26.97;;;;;;;;;;5052553;28;20292;-73
2020/12/06 09:35:31;;;;;;;27.90;25.00;;;;;;;;;;5052157;28;20474;-74
2020/12/06 09:38:16;;;;;;;29.37;25.43;;;;;;;;;;5052169;28;20243;-80
2020/12/06 09:41:01;;;;;;;29.23;26.07;;;;;;;;;;5046998;28;20513;-71
2020/12/06 09:43:46;;;;;;;29.17;25.77;;;;;;;;;;5051292;28;20412;-71
2020/12/06 09:46:30;;;;;;;28.70;25.17;;;;;;;;;;5052214;28;20422;-74
2020/12/06 09:49:15;;;;;;;28.73;25.63;;;;;;;;;;5052488;28;20202;-73
2020/12/06 09:52:00;;;;;;;28.60;24.00;;;;;;;;;;5051517;28;20338;-74
2020/12/06 09:54:45;;;;;;;28.70;25.67;;;;;;;;;;5049873;28;20247;-75
2020/12/06 09:57:29;;;;;;;28.17;25.17;;;;;;;;;;5051364;28;20378;-73
2020/12/06 10:00:14;;;;;;;29.87;26.60;;;;;;;;;;5051868;28;20559;-74
2020/12/06 10:02:58;;;;;;;29.50;26.23;;;;;;;;;;5051268;28;20492;-73
2020/12/06 10:05:44;;;;;;;29.00;25.10;;;;;;;;;;5046770;28;20255;-74
2020/12/06 10:08:28;;;;;;;29.60;25.87;;;;;;;;;;5049654;28;20743;-75
2020/12/06 10:11:14;;;;;;;28.10;25.03;;;;;;;;;;5050988;28;20426;-76
2020/12/06 10:13:58;;;;;;;29.07;25.20;;;;;;;;;;5051448;28;20209;-75
2020/12/06 10:16:43;;;;;;;28.70;25.25;;;;;;;;;;5048265;28;20526;-74
2020/12/06 10:19:28;;;;;;;30.53;26.20;;;;;;;;;;5051529;28;20553;-73
2020/12/06 10:22:13;;;;;;;29.47;26.37;;;;;;;;;;5051404;28;20204;-73
2020/12/06 10:24:58;;;;;;;30.03;26.80;;;;;;;;;;5048043;28;20203;-74
2020/12/06 10:27:42;;;;;;;29.63;26.30;;;;;;;;;;5050675;28;20217;-74
2020/12/06 10:30:27;;;;;;;28.77;25.77;;;;;;;;;;5048806;28;20205;-74
2020/12/06 10:33:11;;;;;;;28.73;25.70;;;;;;;;;;5038525;28;20291;-73
2020/12/06 10:35:56;;;;;;;29.30;26.20;;;;;;;;;;5050458;28;20225;-72
2020/12/06 10:38:41;;;;;;;30.97;27.63;;;;;;;;;;5038501;28;20276;-72
2020/12/06 10:41:26;;;;;;;29.40;26.00;;;;;;;;;;5044544;28;20224;-73
2020/12/06 10:44:10;;;;;;;29.77;26.27;;;;;;;;;;5050885;28;20193;-74
2020/12/06 10:46:55;;;;;;;28.00;25.07;;;;;;;;;;5047822;28;20276;-73
2020/12/06 10:49:41;;;;;;;27.53;24.73;;;;;;;;;;5051176;28;20217;-72
2020/12/06 10:52:25;;;;;;;29.10;26.03;;;;;;;;;;5050976;28;20572;-74
2020/12/06 10:55:11;;;;;;;26.83;24.03;;;;;;;;;;5050792;28;20592;-74
2020/12/06 10:57:55;;;;;;;26.13;23.47;;;;;;;;;;5050549;28;20224;-73
2020/12/06 11:00:40;;;;;;;28.27;25.43;;;;;;;;;;5047850;28;20194;-74
2020/12/06 11:03:24;;;;;;;27.73;24.83;;;;;;;;;;5045324;28;20217;-72
2020/12/06 11:06:09;;;;;;;28.77;25.70;;;;;;;;;;5031816;28;20217;-73
2020/12/06 11:08:53;;;;;;;29.50;26.47;;;;;;;;;;5030816;28;20361;-73
2020/12/06 11:11:39;;;;;;;28.47;25.40;;;;;;;;;;5030622;28;20279;-73
2020/12/06 11:14:23;;;;;;;28.57;25.57;;;;;;;;;;5030725;28;20222;-73
2020/12/06 11:17:08;;;;;;;33.70;30.17;;;;;;;;;;5029876;28;20288;-72
2020/12/06 11:19:53;;;;;;;42.95;39.05;;;;;;;;;;5029313;28;20401;-73
2020/12/06 11:22:38;;;;;;;28.70;25.77;;;;;;;;;;5031247;28;20213;-73
2020/12/06 11:25:23;;;;;;;28.27;25.37;;;;;;;;;;5037429;28;20683;-72
2020/12/06 11:28:08;;;;;;;33.10;29.57;;;;;;;;;;5036697;28;20408;-73
2020/12/06 11:30:52;;;;;;;27.40;24.60;;;;;;;;;;5037250;28;20280;-73
2020/12/06 11:33:37;;;;;;;27.20;24.40;;;;;;;;;;5037292;28;20205;-71
2020/12/06 11:36:21;;;;;;;26.03;23.33;;;;;;;;;;5036107;28;20375;-71
2020/12/06 11:39:06;;;;;;;28.40;25.40;;;;;;;;;;5036993;28;20759;-71
2020/12/06 11:41:53;;;;;;;26.00;23.37;;;;;;;;;;5036700;28;20281;-71
2020/12/06 11:44:38;;;;;;;26.77;24.07;;;;;;;;;;5040999;28;20206;-72
2020/12/06 11:47:23;;;;;;;27.23;24.43;;;;;;;;;;5043182;28;20269;-72
2020/12/06 11:50:07;;;;;;;26.80;24.10;;;;;;;;;;5044952;28;20975;-71
2020/12/06 11:52:52;;;;;;;31.77;28.88;;;;;;;;;;5054196;28;20804;-72
2020/12/06 11:55:36;;;;;;;28.57;25.77;;;;;;;;;;5036943;28;20233;-71
2020/12/06 11:58:21;;;;;;;28.43;25.63;;;;;;;;;;5041368;28;20711;-72
2020/12/06 12:01:06;;;;;;;27.27;24.47;;;;;;;;;;5055687;28;20573;-72
2020/12/06 12:03:51;;;;;;;26.63;23.93;;;;;;;;;;5055654;28;20205;-72
2020/12/06 12:06:35;;;;;;;27.33;24.53;;;;;;;;;;5056322;28;20311;-72
2020/12/06 12:09:20;;;;;;;28.13;25.33;;;;;;;;;;5054859;28;21234;-72
2020/12/06 12:12:04;;;;;;;26.60;23.90;;;;;;;;;;5056746;28;20355;-69
2020/12/06 12:14:49;;;;;;;26.97;24.27;;;;;;;;;;5056702;28;20611;-68
2020/12/06 12:17:34;;;;;;;27.73;24.90;;;;;;;;;;5056210;28;20228;-68
2020/12/06 12:20:19;;;;;;;28.67;25.60;;;;;;;;;;5053786;28;20213;-70
2020/12/06 12:23:03;;;;;;;26.70;23.90;;;;;;;;;;5056445;28;20220;-72
2020/12/06 12:25:48;;;;;;;29.27;26.33;;;;;;;;;;5055511;28;20275;-73
2020/12/06 12:28:33;;;;;;;28.00;25.03;;;;;;;;;;5055642;28;20569;-72
2020/12/06 12:31:17;;;;;;;29.83;26.73;;;;;;;;;;5055387;28;20209;-72
2020/12/06 12:34:02;;;;;;;29.20;26.17;;;;;;;;;;5056542;28;20298;-72
2020/12/06 12:36:47;;;;;;;27.93;25.13;;;;;;;;;;5051754;28;20817;-74
2020/12/06 12:39:31;;;;;;;31.40;28.20;;;;;;;;;;5041404;28;20214;-73
2020/12/06 12:42:16;;;;;;;28.83;25.93;;;;;;;;;;5036379;28;20749;-73
2020/12/06 12:45:00;;;;;;;26.97;24.37;;;;;;;;;;5049369;28;20221;-73
2020/12/06 12:47:45;;;;;;;26.70;24.10;;;;;;;;;;5052957;28;20288;-73
2020/12/06 12:50:30;;;;;;;28.50;25.70;;;;;;;;;;5052652;28;20213;-72
2020/12/06 12:53:15;;;;;;;28.50;25.53;;;;;;;;;;5053108;28;20642;-73
2020/12/06 12:55:59;;;;;;;33.13;30.15;;;;;;;;;;5046226;28;20554;-76
2020/12/06 12:58:44;;;;;;;28.60;25.87;;;;;;;;;;5035796;28;20281;-73
2020/12/06 13:01:28;;;;;;;27.70;25.00;;;;;;;;;;5044869;28;20205;-71
2020/12/06 13:04:13;;;;;;;28.30;25.40;;;;;;;;;;5051534;28;20221;-72
2020/12/06 13:07:00;;;;;;;26.67;24.03;;;;;;;;;;5051805;28;20226;-72
2020/12/06 13:09:44;;;;;;;26.67;23.90;;;;;;;;;;5048595;28;20279;-72
2020/12/06 13:12:29;;;;;;;26.27;23.67;;;;;;;;;;5051581;28;20719;-76
2020/12/06 13:15:13;;;;;;;30.07;25.87;;;;;;;;;;5051691;28;20356;-75
2020/12/06 13:17:58;;;;;;;29.17;26.10;;;;;;;;;;5051954;28;20288;-78
2020/12/06 13:20:43;;;;;;;29.23;26.27;;;;;;;;;;5051748;28;20229;-74
2020/12/06 13:23:28;;;;;;;38.80;34.70;;;;;;;;;;5052830;28;20217;-77
2020/12/06 13:26:15;;;;;;;32.37;28.93;;;;;;;;;;5049786;28;20275;-74
2020/12/06 13:28:59;;;;;;;31.47;28.13;;;;;;;;;;5047800;28;20209;-70
2020/12/06 13:31:44;;;;;;;45.10;36.33;;;;;;;;;;5050262;28;20209;-74
2020/12/06 13:34:29;;;;;;;71.63;53.00;;;;;;;;;;5051502;28;20291;-73
2020/12/06 13:37:14;;;;;;;128.13;92.47;;;;;;;;;;5049285;28;20307;-73
2020/12/06 13:40:00;;;;;;;67.37;55.03;;;;;;;;;;5051493;28;20204;-73
2020/12/06 13:42:44;;;;;;;61.23;53.57;;;;;;;;;;5050510;28;20214;-73
2020/12/06 13:45:28;;;;;;;50.30;44.80;;;;;;;;;;5043797;28;20212;-74
2020/12/06 13:48:13;;;;;;;61.60;54.97;;;;;;;;;;5050337;28;20201;-74
2020/12/06 13:50:58;;;;;;;50.03;44.83;;;;;;;;;;5037186;28;20225;-73
2020/12/06 13:53:42;;;;;;;44.20;39.90;;;;;;;;;;5043131;28;20720;-73
2020/12/06 13:56:28;;;;;;;35.67;32.17;;;;;;;;;;5031334;28;20288;-73
2020/12/06 13:59:12;;;;;;;37.23;33.40;;;;;;;;;;5042350;28;20617;-73
2020/12/06 14:01:57;;;;;;;33.53;30.10;;;;;;;;;;5049500;28;20578;-70
2020/12/06 14:04:41;;;;;;;31.07;27.77;;;;;;;;;;5046269;28;20661;-72
2020/12/06 14:07:26;;;;;;;31.47;28.37;;;;;;;;;;5049981;28;20303;-69
2020/12/06 14:10:10;;;;;;;31.10;28.00;;;;;;;;;;5039635;28;20253;-69
2020/12/06 14:12:56;;;;;;;29.80;26.63;;;;;;;;;;5048292;28;20213;-70
2020/12/06 14:15:41;;;;;;;29.53;26.57;;;;;;;;;;5040013;28;20708;-83
2020/12/06 14:18:25;;;;;;;30.03;26.93;;;;;;;;;;5043020;28;20217;-74
2020/12/06 14:21:09;;;;;;;31.87;27.50;;;;;;;;;;5036182;28;20301;-74
2020/12/06 14:23:54;;;;;;;33.97;30.37;;;;;;;;;;5049721;28;20792;-74
2020/12/06 14:26:38;;;;;;;36.27;32.33;;;;;;;;;;5049816;28;20272;-74
2020/12/06 14:29:24;;;;;;;37.63;33.83;;;;;;;;;;5051122;28;20237;-76
2020/12/06 14:32:09;;;;;;;34.37;30.87;;;;;;;;;;5049952;28;20197;-76
2020/12/06 14:34:53;;;;;;;32.73;29.37;;;;;;;;;;5049002;28;20218;-81
2020/12/06 14:37:38;;;;;;;34.80;30.23;;;;;;;;;;5030581;28;20230;-80
2020/12/06 14:40:23;;;;;;;34.10;30.40;;;;;;;;;;5048833;28;20206;-75
2020/12/06 14:43:07;;;;;;;34.00;30.40;;;;;;;;;;5031262;28;20252;-75
2020/12/06 14:45:53;;;;;;;33.10;29.67;;;;;;;;;;5042503;28;20233;-75
2020/12/06 14:48:38;;;;;;;31.70;28.30;;;;;;;;;;5048605;28;20197;-77
2020/12/06 14:51:22;;;;;;;42.77;38.13;;;;;;;;;;5050109;28;20220;-76
2020/12/06 14:54:06;;;;;;;35.40;30.90;;;;;;;;;;5042587;28;20293;-75
2020/12/06 14:56:51;;;;;;;34.87;31.03;;;;;;;;;;5050095;28;20216;-77
2020/12/06 14:59:36;;;;;;;36.57;32.73;;;;;;;;;;5050480;28;20205;-79
2020/12/06 15:02:21;;;;;;;35.63;31.67;;;;;;;;;;5048877;28;20196;-80
2020/12/06 15:05:06;;;;;;;35.87;31.70;;;;;;;;;;5049546;28;20275;-79
2020/12/06 15:07:50;;;;;;;33.83;30.13;;;;;;;;;;5048592;28;20291;-80
2020/12/06 15:10:35;;;;;;;39.77;35.27;;;;;;;;;;5050109;28;20209;-81
2020/12/06 15:13:19;;;;;;;34.43;30.87;;;;;;;;;;5035366;28;20205;-78
2020/12/06 15:16:04;;;;;;;35.10;31.30;;;;;;;;;;5029580;28;20368;-80
2020/12/06 15:18:50;;;;;;;46.93;41.73;;;;;;;;;;5047933;28;20217;-80
2020/12/06 15:21:34;;;;;;;54.30;45.10;;;;;;;;;;5050834;28;20205;-79
2020/12/06 15:24:19;;;;;;;46.43;40.63;;;;;;;;;;5050278;28;20275;-78
2020/12/06 15:27:03;;;;;;;49.10;42.03;;;;;;;;;;5048634;28;20220;-76
2020/12/06 15:29:48;;;;;;;45.03;35.90;;;;;;;;;;5046828;28;20559;-76
2020/12/06 15:32:32;;;;;;;164.73;95.33;;;;;;;;;;5045787;28;20217;-76
2020/12/06 15:35:19;;;;;;;79.73;61.30;;;;;;;;;;5050235;28;20217;-76
2020/12/06 15:38:03;;;;;;;47.53;41.10;;;;;;;;;;5047356;28;20205;-79
2020/12/06 15:40:47;;;;;;;56.50;49.87;;;;;;;;;;5035628;28;20228;-79
2020/12/06 15:43:32;;;;;;;47.40;39.07;;;;;;;;;;5041720;28;20196;-74
2020/12/06 15:46:17;;;;;;;42.13;36.00;;;;;;;;;;5047665;28;21069;-74
2020/12/06 15:49:01;;;;;;;35.13;30.77;;;;;;;;;;5031830;28;20727;-74
2020/12/06 15:51:46;;;;;;;29.73;26.50;;;;;;;;;;5040107;28;20202;-74
2020/12/06 15:54:31;;;;;;;30.83;27.43;;;;;;;;;;5045700;28;20214;-74
2020/12/06 15:57:15;;;;;;;29.80;26.73;;;;;;;;;;5039279;28;20236;-83
2020/12/06 16:00:00;;;;;;;28.57;24.60;;;;;;;;;;5048762;28;20567;-80